sensor_id;sensor_type;location;lat;lon;timestamp;temperature;humidity
51719;DHT22;37795;53.236;5.704;2023-05-10T00:09:16;12.00;87.20
51719;DHT22;37795;53.236;5.704;2023-05-10T00:11:42;11.90;87.50
51719;DHT22;37795;53.236;5.704;2023-05-10T00:14:07;12.00;87.40
51719;DHT22;37795;53.236;5.704;2023-05-10T00:16:33;12.10;86.90
51719;DHT22;37795;53.236;5.704;2023-05-10T00:18:59;12.00;86.80
51719;DHT22;37795;53.236;5.704;2023-05-10T00:21:25;11.90;86.50
51719;DHT22;37795;53.236;5.704;2023-05-10T00:23:51;11.90;87.20
51719;DHT22;37795;53.236;5.704;2023-05-10T00:26:16;12.00;86.90
51719;DHT22;37795;53.236;5.704;2023-05-10T00:28:42;11.80;86.40
51719;DHT22;37795;53.236;5.704;2023-05-10T00:31:08;12.00;87.00
51719;DHT22;37795;53.236;5.704;2023-05-10T00:33:33;12.00;86.50
51719;DHT22;37795;53.236;5.704;2023-05-10T00:35:59;11.90;86.70
51719;DHT22;37795;53.236;5.704;2023-05-10T00:38:25;12.00;86.80
51719;DHT22;37795;53.236;5.704;2023-05-10T00:40:51;12.00;86.20
51719;DHT22;37795;53.236;5.704;2023-05-10T00:43:16;12.00;86.00
51719;DHT22;37795;53.236;5.704;2023-05-10T00:45:42;11.80;86.70
51719;DHT22;37795;53.236;5.704;2023-05-10T00:48:08;11.90;86.90
51719;DHT22;37795;53.236;5.704;2023-05-10T00:50:34;11.90;86.60
51719;DHT22;37795;53.236;5.704;2023-05-10T00:53:01;11.90;86.20
51719;DHT22;37795;53.236;5.704;2023-05-10T00:55:28;12.10;85.90
51719;DHT22;37795;53.236;5.704;2023-05-10T00:57:54;12.10;85.90
51719;DHT22;37795;53.236;5.704;2023-05-10T01:00:20;12.00;85.70
51719;DHT22;37795;53.236;5.704;2023-05-10T01:02:46;12.10;85.50
51719;DHT22;37795;53.236;5.704;2023-05-10T01:05:12;12.00;85.10
51719;DHT22;37795;53.236;5.704;2023-05-10T01:07:38;12.00;86.00
51719;DHT22;37795;53.236;5.704;2023-05-10T01:10:08;12.10;85.80
51719;DHT22;37795;53.236;5.704;2023-05-10T01:12:37;11.90;86.00
51719;DHT22;37795;53.236;5.704;2023-05-10T01:15:05;12.00;86.00
51719;DHT22;37795;53.236;5.704;2023-05-10T01:17:32;12.20;85.60
51719;DHT22;37795;53.236;5.704;2023-05-10T01:19:58;12.20;85.00
51719;DHT22;37795;53.236;5.704;2023-05-10T01:22:50;12.30;85.20
51719;DHT22;37795;53.236;5.704;2023-05-10T01:33:35;12.40;84.20
51719;DHT22;37795;53.236;5.704;2023-05-10T01:38:55;12.40;84.90
51719;DHT22;37795;53.236;5.704;2023-05-10T01:41:53;12.30;84.40
51719;DHT22;37795;53.236;5.704;2023-05-10T01:47:22;12.40;84.60
51719;DHT22;37795;53.236;5.704;2023-05-10T01:49:53;12.30;84.50
51719;DHT22;37795;53.236;5.704;2023-05-10T01:52:29;12.40;84.80
51719;DHT22;37795;53.236;5.704;2023-05-10T01:55:01;12.40;84.60
51719;DHT22;37795;53.236;5.704;2023-05-10T01:57:34;12.50;84.20
51719;DHT22;37795;53.236;5.704;2023-05-10T02:00:02;12.40;84.60
51719;DHT22;37795;53.236;5.704;2023-05-10T02:02:31;12.50;83.80
51719;DHT22;37795;53.236;5.704;2023-05-10T02:04:59;12.40;84.00
51719;DHT22;37795;53.236;5.704;2023-05-10T02:07:26;12.60;83.60
51719;DHT22;37795;53.236;5.704;2023-05-10T02:09:54;12.50;83.50
51719;DHT22;37795;53.236;5.704;2023-05-10T02:12:22;12.60;83.20
51719;DHT22;37795;53.236;5.704;2023-05-10T02:14:51;12.70;82.80
51719;DHT22;37795;53.236;5.704;2023-05-10T02:17:18;12.80;82.40
51719;DHT22;37795;53.236;5.704;2023-05-10T02:19:47;12.80;82.20
51719;DHT22;37795;53.236;5.704;2023-05-10T02:22:13;12.80;82.00
51719;DHT22;37795;53.236;5.704;2023-05-10T02:24:42;12.80;82.00
51719;DHT22;37795;53.236;5.704;2023-05-10T02:27:09;12.80;82.00
51719;DHT22;37795;53.236;5.704;2023-05-10T02:29:36;12.80;81.70
51719;DHT22;37795;53.236;5.704;2023-05-10T02:32:02;12.80;81.70
51719;DHT22;37795;53.236;5.704;2023-05-10T02:34:29;12.80;81.90
51719;DHT22;37795;53.236;5.704;2023-05-10T02:36:56;12.90;81.60
51719;DHT22;37795;53.236;5.704;2023-05-10T02:39:23;12.90;81.40
51719;DHT22;37795;53.236;5.704;2023-05-10T02:41:50;12.90;81.50
51719;DHT22;37795;53.236;5.704;2023-05-10T02:44:19;12.90;81.50
51719;DHT22;37795;53.236;5.704;2023-05-10T02:46:46;12.90;81.50
51719;DHT22;37795;53.236;5.704;2023-05-10T02:49:12;12.80;81.30
51719;DHT22;37795;53.236;5.704;2023-05-10T02:51:44;12.90;81.60
51719;DHT22;37795;53.236;5.704;2023-05-10T02:54:18;12.80;81.70
51719;DHT22;37795;53.236;5.704;2023-05-10T02:56:49;12.80;81.70
51719;DHT22;37795;53.236;5.704;2023-05-10T02:59:16;12.80;81.70
51719;DHT22;37795;53.236;5.704;2023-05-10T03:01:42;12.80;81.70
51719;DHT22;37795;53.236;5.704;2023-05-10T03:04:07;12.70;81.80
51719;DHT22;37795;53.236;5.704;2023-05-10T03:06:33;12.80;81.90
51719;DHT22;37795;53.236;5.704;2023-05-10T03:08:59;12.80;82.00
51719;DHT22;37795;53.236;5.704;2023-05-10T03:16:56;12.80;81.60
51719;DHT22;37795;53.236;5.704;2023-05-10T03:19:26;12.80;81.60
51719;DHT22;37795;53.236;5.704;2023-05-10T03:21:55;12.90;81.50
51719;DHT22;37795;53.236;5.704;2023-05-10T03:24:27;12.90;81.40
51719;DHT22;37795;53.236;5.704;2023-05-10T03:26:55;12.90;81.30
51719;DHT22;37795;53.236;5.704;2023-05-10T03:29:23;12.90;81.30
51719;DHT22;37795;53.236;5.704;2023-05-10T03:31:51;12.90;81.20
51719;DHT22;37795;53.236;5.704;2023-05-10T03:34:16;12.80;81.50
51719;DHT22;37795;53.236;5.704;2023-05-10T03:36:48;12.80;81.80
51719;DHT22;37795;53.236;5.704;2023-05-10T03:39:14;12.80;81.60
51719;DHT22;37795;53.236;5.704;2023-05-10T03:41:39;12.90;81.60
51719;DHT22;37795;53.236;5.704;2023-05-10T03:44:05;12.90;81.40
51719;DHT22;37795;53.236;5.704;2023-05-10T03:46:31;12.80;81.60
51719;DHT22;37795;53.236;5.704;2023-05-10T03:48:56;12.80;81.50
51719;DHT22;37795;53.236;5.704;2023-05-10T03:51:22;12.80;81.40
51719;DHT22;37795;53.236;5.704;2023-05-10T03:53:48;12.80;81.40
51719;DHT22;37795;53.236;5.704;2023-05-10T03:56:13;12.80;81.50
51719;DHT22;37795;53.236;5.704;2023-05-10T03:58:39;12.70;81.80
51719;DHT22;37795;53.236;5.704;2023-05-10T04:01:05;12.70;81.90
51719;DHT22;37795;53.236;5.704;2023-05-10T04:03:30;12.70;81.90
51719;DHT22;37795;53.236;5.704;2023-05-10T04:06:00;12.70;81.90
51719;DHT22;37795;53.236;5.704;2023-05-10T04:08:27;12.70;82.00
51719;DHT22;37795;53.236;5.704;2023-05-10T04:10:53;12.70;81.90
51719;DHT22;37795;53.236;5.704;2023-05-10T04:13:18;12.70;81.90
51719;DHT22;37795;53.236;5.704;2023-05-10T04:15:45;12.70;81.70
51719;DHT22;37795;53.236;5.704;2023-05-10T04:18:10;12.70;81.90
51719;DHT22;37795;53.236;5.704;2023-05-10T04:20:37;12.70;81.90
51719;DHT22;37795;53.236;5.704;2023-05-10T04:23:02;12.70;81.90
51719;DHT22;37795;53.236;5.704;2023-05-10T04:25:28;12.70;81.80
51719;DHT22;37795;53.236;5.704;2023-05-10T04:27:54;12.80;81.50
51719;DHT22;37795;53.236;5.704;2023-05-10T04:30:19;12.80;81.50
51719;DHT22;37795;53.236;5.704;2023-05-10T04:32:45;12.80;81.40
51719;DHT22;37795;53.236;5.704;2023-05-10T04:35:11;12.80;81.30
51719;DHT22;37795;53.236;5.704;2023-05-10T04:37:37;12.80;81.20
51719;DHT22;37795;53.236;5.704;2023-05-10T04:40:03;12.80;81.20
51719;DHT22;37795;53.236;5.704;2023-05-10T04:42:29;12.90;80.90
51719;DHT22;37795;53.236;5.704;2023-05-10T04:44:55;12.80;80.90
51719;DHT22;37795;53.236;5.704;2023-05-10T04:47:20;12.80;81.00
51719;DHT22;37795;53.236;5.704;2023-05-10T04:49:46;12.80;80.90
51719;DHT22;37795;53.236;5.704;2023-05-10T04:52:12;12.80;80.90
51719;DHT22;37795;53.236;5.704;2023-05-10T04:54:37;12.90;80.90
51719;DHT22;37795;53.236;5.704;2023-05-10T04:57:03;12.90;80.70
51719;DHT22;37795;53.236;5.704;2023-05-10T04:59:29;12.90;80.80
51719;DHT22;37795;53.236;5.704;2023-05-10T05:01:54;12.90;80.80
51719;DHT22;37795;53.236;5.704;2023-05-10T05:04:20;12.90;80.80
51719;DHT22;37795;53.236;5.704;2023-05-10T05:06:48;12.90;80.70
51719;DHT22;37795;53.236;5.704;2023-05-10T05:09:13;12.90;80.60
51719;DHT22;37795;53.236;5.704;2023-05-10T05:11:39;12.90;80.60
51719;DHT22;37795;53.236;5.704;2023-05-10T05:14:05;12.90;80.70
51719;DHT22;37795;53.236;5.704;2023-05-10T05:16:31;12.90;80.80
51719;DHT22;37795;53.236;5.704;2023-05-10T05:18:57;12.90;81.00
51719;DHT22;37795;53.236;5.704;2023-05-10T05:21:23;12.80;81.00
51719;DHT22;37795;53.236;5.704;2023-05-10T05:23:50;12.80;81.20
51719;DHT22;37795;53.236;5.704;2023-05-10T05:26:16;12.80;81.20
51719;DHT22;37795;53.236;5.704;2023-05-10T05:28:42;12.80;81.30
51719;DHT22;37795;53.236;5.704;2023-05-10T05:31:07;12.80;81.40
51719;DHT22;37795;53.236;5.704;2023-05-10T05:33:33;12.80;81.30
51719;DHT22;37795;53.236;5.704;2023-05-10T05:36:03;12.80;81.20
51719;DHT22;37795;53.236;5.704;2023-05-10T05:38:30;12.80;81.20
51719;DHT22;37795;53.236;5.704;2023-05-10T05:40:55;12.80;81.30
51719;DHT22;37795;53.236;5.704;2023-05-10T05:43:21;12.80;81.40
51719;DHT22;37795;53.236;5.704;2023-05-10T05:45:47;12.90;81.50
51719;DHT22;37795;53.236;5.704;2023-05-10T05:48:13;12.80;81.40
51719;DHT22;37795;53.236;5.704;2023-05-10T05:50:39;12.90;81.30
51719;DHT22;37795;53.236;5.704;2023-05-10T05:53:04;12.90;81.20
51719;DHT22;37795;53.236;5.704;2023-05-10T05:55:30;12.90;81.30
51719;DHT22;37795;53.236;5.704;2023-05-10T05:57:57;12.90;81.30
51719;DHT22;37795;53.236;5.704;2023-05-10T06:00:23;13.00;81.10
51719;DHT22;37795;53.236;5.704;2023-05-10T06:02:49;12.90;81.20
51719;DHT22;37795;53.236;5.704;2023-05-10T06:05:15;12.80;81.50
51719;DHT22;37795;53.236;5.704;2023-05-10T06:07:41;12.70;81.70
51719;DHT22;37795;53.236;5.704;2023-05-10T06:10:09;12.80;82.10
51719;DHT22;37795;53.236;5.704;2023-05-10T06:12:35;12.80;81.90
51719;DHT22;37795;53.236;5.704;2023-05-10T06:15:02;12.70;82.20
51719;DHT22;37795;53.236;5.704;2023-05-10T06:17:28;12.80;82.30
51719;DHT22;37795;53.236;5.704;2023-05-10T06:19:54;12.80;82.00
51719;DHT22;37795;53.236;5.704;2023-05-10T06:22:20;12.80;82.10
51719;DHT22;37795;53.236;5.704;2023-05-10T06:24:47;12.80;81.90
51719;DHT22;37795;53.236;5.704;2023-05-10T06:27:13;12.80;82.20
51719;DHT22;37795;53.236;5.704;2023-05-10T06:29:38;12.90;82.10
51719;DHT22;37795;53.236;5.704;2023-05-10T06:32:04;12.90;82.20
51719;DHT22;37795;53.236;5.704;2023-05-10T06:34:30;12.90;82.00
51719;DHT22;37795;53.236;5.704;2023-05-10T06:36:57;13.00;81.60
51719;DHT22;37795;53.236;5.704;2023-05-10T06:39:22;13.00;81.80
51719;DHT22;37795;53.236;5.704;2023-05-10T06:41:48;12.90;82.10
51719;DHT22;37795;53.236;5.704;2023-05-10T06:44:14;12.80;82.30
51719;DHT22;37795;53.236;5.704;2023-05-10T06:46:40;12.80;82.80
51719;DHT22;37795;53.236;5.704;2023-05-10T06:56:23;12.90;83.20
51719;DHT22;37795;53.236;5.704;2023-05-10T06:58:48;12.70;83.40
51719;DHT22;37795;53.236;5.704;2023-05-10T07:01:14;12.80;83.40
51719;DHT22;37795;53.236;5.704;2023-05-10T07:03:40;12.70;83.20
51719;DHT22;37795;53.236;5.704;2023-05-10T07:06:06;12.80;83.20
51719;DHT22;37795;53.236;5.704;2023-05-10T07:08:35;12.70;83.50
51719;DHT22;37795;53.236;5.704;2023-05-10T07:11:02;12.70;83.30
51719;DHT22;37795;53.236;5.704;2023-05-10T07:13:30;12.80;83.40
51719;DHT22;37795;53.236;5.704;2023-05-10T07:15:56;12.90;83.50
51719;DHT22;37795;53.236;5.704;2023-05-10T07:18:22;12.80;82.80
51719;DHT22;37795;53.236;5.704;2023-05-10T07:20:48;12.80;83.30
51719;DHT22;37795;53.236;5.704;2023-05-10T07:23:13;12.90;83.00
51719;DHT22;37795;53.236;5.704;2023-05-10T07:25:39;12.90;82.60
51719;DHT22;37795;53.236;5.704;2023-05-10T07:28:05;12.90;82.10
51719;DHT22;37795;53.236;5.704;2023-05-10T07:30:31;12.90;82.30
51719;DHT22;37795;53.236;5.704;2023-05-10T07:32:57;12.80;82.70
51719;DHT22;37795;53.236;5.704;2023-05-10T07:35:22;12.90;83.20
51719;DHT22;37795;53.236;5.704;2023-05-10T07:37:48;12.90;83.00
51719;DHT22;37795;53.236;5.704;2023-05-10T07:40:14;12.90;83.00
51719;DHT22;37795;53.236;5.704;2023-05-10T07:42:40;13.00;82.70
51719;DHT22;37795;53.236;5.704;2023-05-10T07:45:06;13.10;82.50
51719;DHT22;37795;53.236;5.704;2023-05-10T07:47:31;13.10;82.10
51719;DHT22;37795;53.236;5.704;2023-05-10T07:49:57;13.20;82.10
51719;DHT22;37795;53.236;5.704;2023-05-10T07:52:23;13.20;82.00
51719;DHT22;37795;53.236;5.704;2023-05-10T07:54:49;13.20;82.30
51719;DHT22;37795;53.236;5.704;2023-05-10T07:57:15;13.20;81.60
51719;DHT22;37795;53.236;5.704;2023-05-10T07:59:43;13.10;81.90
51719;DHT22;37795;53.236;5.704;2023-05-10T08:02:09;13.10;82.10
51719;DHT22;37795;53.236;5.704;2023-05-10T08:04:35;13.10;82.10
51719;DHT22;37795;53.236;5.704;2023-05-10T08:07:01;13.20;81.90
51719;DHT22;37795;53.236;5.704;2023-05-10T08:09:26;13.20;82.10
51719;DHT22;37795;53.236;5.704;2023-05-10T08:11:52;13.30;82.00
51719;DHT22;37795;53.236;5.704;2023-05-10T08:14:18;13.30;81.30
51719;DHT22;37795;53.236;5.704;2023-05-10T08:16:44;13.30;80.90
51719;DHT22;37795;53.236;5.704;2023-05-10T08:19:09;13.10;81.90
51719;DHT22;37795;53.236;5.704;2023-05-10T08:21:35;13.10;82.00
51719;DHT22;37795;53.236;5.704;2023-05-10T08:24:01;13.10;82.10
51719;DHT22;37795;53.236;5.704;2023-05-10T08:26:27;13.00;81.50
51719;DHT22;37795;53.236;5.704;2023-05-10T08:28:53;12.90;82.20
51719;DHT22;37795;53.236;5.704;2023-05-10T08:31:19;13.00;82.20
51719;DHT22;37795;53.236;5.704;2023-05-10T08:33:44;13.10;81.70
51719;DHT22;37795;53.236;5.704;2023-05-10T08:36:10;13.20;81.70
51719;DHT22;37795;53.236;5.704;2023-05-10T08:38:37;13.20;81.40
51719;DHT22;37795;53.236;5.704;2023-05-10T08:41:03;13.30;81.60
51719;DHT22;37795;53.236;5.704;2023-05-10T08:43:31;13.40;81.20
51719;DHT22;37795;53.236;5.704;2023-05-10T08:46:00;13.50;80.80
51719;DHT22;37795;53.236;5.704;2023-05-10T08:48:29;13.50;80.50
51719;DHT22;37795;53.236;5.704;2023-05-10T08:50:57;13.60;80.80
51719;DHT22;37795;53.236;5.704;2023-05-10T08:53:24;13.50;80.40
51719;DHT22;37795;53.236;5.704;2023-05-10T08:55:52;13.60;80.60
51719;DHT22;37795;53.236;5.704;2023-05-10T08:58:19;13.70;80.50
51719;DHT22;37795;53.236;5.704;2023-05-10T09:00:46;13.80;80.00
51719;DHT22;37795;53.236;5.704;2023-05-10T09:03:12;13.70;80.10
51719;DHT22;37795;53.236;5.704;2023-05-10T09:05:38;13.60;80.60
51719;DHT22;37795;53.236;5.704;2023-05-10T09:08:05;13.50;81.10
51719;DHT22;37795;53.236;5.704;2023-05-10T09:10:31;13.60;80.90
51719;DHT22;37795;53.236;5.704;2023-05-10T09:12:58;13.50;80.50
51719;DHT22;37795;53.236;5.704;2023-05-10T09:15:24;13.30;81.30
51719;DHT22;37795;53.236;5.704;2023-05-10T09:17:50;13.50;81.40
51719;DHT22;37795;53.236;5.704;2023-05-10T09:20:16;13.50;80.90
51719;DHT22;37795;53.236;5.704;2023-05-10T09:22:43;13.50;80.80
51719;DHT22;37795;53.236;5.704;2023-05-10T09:25:11;13.50;80.90
51719;DHT22;37795;53.236;5.704;2023-05-10T09:27:39;13.50;80.50
51719;DHT22;37795;53.236;5.704;2023-05-10T09:30:05;13.50;80.40
51719;DHT22;37795;53.236;5.704;2023-05-10T09:32:43;13.20;81.10
51719;DHT22;37795;53.236;5.704;2023-05-10T09:35:14;13.30;80.80
51719;DHT22;37795;53.236;5.704;2023-05-10T09:37:41;13.30;80.40
51719;DHT22;37795;53.236;5.704;2023-05-10T09:40:11;13.20;81.10
51719;DHT22;37795;53.236;5.704;2023-05-10T09:42:37;13.30;81.60
51719;DHT22;37795;53.236;5.704;2023-05-10T09:45:06;13.50;81.00
51719;DHT22;37795;53.236;5.704;2023-05-10T09:47:36;13.60;80.80
51719;DHT22;37795;53.236;5.704;2023-05-10T09:50:03;13.70;80.00
51719;DHT22;37795;53.236;5.704;2023-05-10T09:53:01;13.80;80.10
51719;DHT22;37795;53.236;5.704;2023-05-10T09:55:45;13.80;80.00
51719;DHT22;37795;53.236;5.704;2023-05-10T09:58:15;13.80;79.60
51719;DHT22;37795;53.236;5.704;2023-05-10T10:00:42;13.90;79.50
51719;DHT22;37795;53.236;5.704;2023-05-10T10:03:16;13.60;79.80
51719;DHT22;37795;53.236;5.704;2023-05-10T10:05:43;13.60;79.60
51719;DHT22;37795;53.236;5.704;2023-05-10T10:08:10;13.50;80.80
51719;DHT22;37795;53.236;5.704;2023-05-10T10:10:36;13.50;80.70
51719;DHT22;37795;53.236;5.704;2023-05-10T10:13:02;13.40;80.90
51719;DHT22;37795;53.236;5.704;2023-05-10T10:15:28;13.60;80.40
51719;DHT22;37795;53.236;5.704;2023-05-10T10:17:54;13.70;80.30
51719;DHT22;37795;53.236;5.704;2023-05-10T10:20:21;13.80;80.00
51719;DHT22;37795;53.236;5.704;2023-05-10T10:22:48;14.10;79.80
51719;DHT22;37795;53.236;5.704;2023-05-10T10:25:15;14.10;79.50
51719;DHT22;37795;53.236;5.704;2023-05-10T10:30:32;14.00;79.30
51719;DHT22;37795;53.236;5.704;2023-05-10T10:33:18;14.10;79.30
51719;DHT22;37795;53.236;5.704;2023-05-10T10:35:47;14.20;78.80
51719;DHT22;37795;53.236;5.704;2023-05-10T10:38:13;14.20;79.00
51719;DHT22;37795;53.236;5.704;2023-05-10T10:40:39;14.40;79.00
51719;DHT22;37795;53.236;5.704;2023-05-10T10:43:25;14.60;78.60
51719;DHT22;37795;53.236;5.704;2023-05-10T10:46:14;14.80;78.10
51719;DHT22;37795;53.236;5.704;2023-05-10T10:48:43;14.70;77.40
51719;DHT22;37795;53.236;5.704;2023-05-10T10:56:23;15.20;76.40
51719;DHT22;37795;53.236;5.704;2023-05-10T10:58:49;14.70;76.80
51719;DHT22;37795;53.236;5.704;2023-05-10T11:01:19;14.50;76.60
51719;DHT22;37795;53.236;5.704;2023-05-10T11:04:17;14.60;77.30
51719;DHT22;37795;53.236;5.704;2023-05-10T11:06:44;14.60;77.50
51719;DHT22;37795;53.236;5.704;2023-05-10T11:09:11;14.80;76.40
51719;DHT22;37795;53.236;5.704;2023-05-10T11:11:50;14.80;76.00
51719;DHT22;37795;53.236;5.704;2023-05-10T11:14:20;15.00;76.40
51719;DHT22;37795;53.236;5.704;2023-05-10T11:16:45;14.90;76.20
51719;DHT22;37795;53.236;5.704;2023-05-10T11:19:12;14.90;76.20
51719;DHT22;37795;53.236;5.704;2023-05-10T11:24:37;14.90;76.10
51719;DHT22;37795;53.236;5.704;2023-05-10T11:27:03;14.70;76.20
51719;DHT22;37795;53.236;5.704;2023-05-10T11:29:29;14.90;76.40
51719;DHT22;37795;53.236;5.704;2023-05-10T11:31:58;15.00;76.00
51719;DHT22;37795;53.236;5.704;2023-05-10T11:34:30;14.80;76.10
51719;DHT22;37795;53.236;5.704;2023-05-10T11:36:59;14.90;76.50
51719;DHT22;37795;53.236;5.704;2023-05-10T11:39:27;14.80;75.10
51719;DHT22;37795;53.236;5.704;2023-05-10T11:41:53;14.90;76.20
51719;DHT22;37795;53.236;5.704;2023-05-10T11:44:18;15.00;75.00
51719;DHT22;37795;53.236;5.704;2023-05-10T11:46:44;15.10;75.60
51719;DHT22;37795;53.236;5.704;2023-05-10T11:49:10;15.40;75.70
51719;DHT22;37795;53.236;5.704;2023-05-10T11:51:37;15.50;76.40
51719;DHT22;37795;53.236;5.704;2023-05-10T11:54:10;15.50;75.00
51719;DHT22;37795;53.236;5.704;2023-05-10T11:56:40;15.60;74.50
51719;DHT22;37795;53.236;5.704;2023-05-10T11:59:07;15.60;74.20
51719;DHT22;37795;53.236;5.704;2023-05-10T12:01:33;15.50;73.90
51719;DHT22;37795;53.236;5.704;2023-05-10T12:03:59;15.60;74.20
51719;DHT22;37795;53.236;5.704;2023-05-10T12:06:31;15.80;74.00
51719;DHT22;37795;53.236;5.704;2023-05-10T12:08:57;15.90;73.40
51719;DHT22;37795;53.236;5.704;2023-05-10T12:11:27;15.80;72.80
51719;DHT22;37795;53.236;5.704;2023-05-10T12:13:55;16.10;73.50
51719;DHT22;37795;53.236;5.704;2023-05-10T12:16:23;16.30;72.60
51719;DHT22;37795;53.236;5.704;2023-05-10T12:18:54;15.90;72.30
51719;DHT22;37795;53.236;5.704;2023-05-10T12:21:21;15.60;73.00
51719;DHT22;37795;53.236;5.704;2023-05-10T12:23:52;16.00;74.00
51719;DHT22;37795;53.236;5.704;2023-05-10T12:26:21;16.20;73.00
51719;DHT22;37795;53.236;5.704;2023-05-10T12:28:47;16.20;72.70
51719;DHT22;37795;53.236;5.704;2023-05-10T12:31:13;16.40;72.70
51719;DHT22;37795;53.236;5.704;2023-05-10T12:33:40;16.70;71.70
51719;DHT22;37795;53.236;5.704;2023-05-10T12:36:12;16.90;69.90
51719;DHT22;37795;53.236;5.704;2023-05-10T12:38:39;16.40;71.90
51719;DHT22;37795;53.236;5.704;2023-05-10T12:41:09;16.30;72.40
51719;DHT22;37795;53.236;5.704;2023-05-10T12:43:36;16.70;73.00
51719;DHT22;37795;53.236;5.704;2023-05-10T12:46:12;16.70;72.40
51719;DHT22;37795;53.236;5.704;2023-05-10T12:48:39;17.50;72.10
51719;DHT22;37795;53.236;5.704;2023-05-10T12:51:05;18.20;70.50
51719;DHT22;37795;53.236;5.704;2023-05-10T12:53:35;17.70;70.10
51719;DHT22;37795;53.236;5.704;2023-05-10T12:56:01;17.20;70.00
51719;DHT22;37795;53.236;5.704;2023-05-10T12:58:27;17.00;71.60
51719;DHT22;37795;53.236;5.704;2023-05-10T13:00:52;17.10;71.40
51719;DHT22;37795;53.236;5.704;2023-05-10T13:03:18;17.10;70.90
51719;DHT22;37795;53.236;5.704;2023-05-10T13:05:45;16.90;72.70
51719;DHT22;37795;53.236;5.704;2023-05-10T13:08:10;17.20;71.30
51719;DHT22;37795;53.236;5.704;2023-05-10T13:10:36;17.30;70.90
51719;DHT22;37795;53.236;5.704;2023-05-10T13:13:02;17.40;69.20
51719;DHT22;37795;53.236;5.704;2023-05-10T13:15:28;17.50;71.10
51719;DHT22;37795;53.236;5.704;2023-05-10T13:17:54;17.80;70.20
51719;DHT22;37795;53.236;5.704;2023-05-10T13:20:20;17.70;69.60
51719;DHT22;37795;53.236;5.704;2023-05-10T13:22:46;17.80;68.70
51719;DHT22;37795;53.236;5.704;2023-05-10T13:25:12;17.60;69.10
51719;DHT22;37795;53.236;5.704;2023-05-10T13:27:39;17.40;68.70
51719;DHT22;37795;53.236;5.704;2023-05-10T13:30:06;17.20;71.20
51719;DHT22;37795;53.236;5.704;2023-05-10T13:32:32;17.30;70.50
51719;DHT22;37795;53.236;5.704;2023-05-10T13:34:58;17.80;69.90
51719;DHT22;37795;53.236;5.704;2023-05-10T13:37:24;17.80;68.60
51719;DHT22;37795;53.236;5.704;2023-05-10T13:39:49;18.00;69.70
51719;DHT22;37795;53.236;5.704;2023-05-10T13:42:15;18.10;68.20
51719;DHT22;37795;53.236;5.704;2023-05-10T13:44:41;18.10;68.40
51719;DHT22;37795;53.236;5.704;2023-05-10T13:47:07;17.70;67.80
51719;DHT22;37795;53.236;5.704;2023-05-10T13:49:32;17.40;68.80
51719;DHT22;37795;53.236;5.704;2023-05-10T13:51:59;17.30;69.80
51719;DHT22;37795;53.236;5.704;2023-05-10T13:54:31;17.80;70.30
51719;DHT22;37795;53.236;5.704;2023-05-10T13:56:57;17.70;70.00
51719;DHT22;37795;53.236;5.704;2023-05-10T13:59:23;18.20;69.60
51719;DHT22;37795;53.236;5.704;2023-05-10T14:01:48;17.80;68.70
51719;DHT22;37795;53.236;5.704;2023-05-10T14:04:14;17.90;69.60
51719;DHT22;37795;53.236;5.704;2023-05-10T14:06:40;18.00;69.40
51719;DHT22;37795;53.236;5.704;2023-05-10T14:09:06;17.40;69.60
51719;DHT22;37795;53.236;5.704;2023-05-10T14:11:31;17.70;70.60
51719;DHT22;37795;53.236;5.704;2023-05-10T14:13:57;17.70;70.30
51719;DHT22;37795;53.236;5.704;2023-05-10T14:16:23;17.50;70.30
51719;DHT22;37795;53.236;5.704;2023-05-10T14:18:49;17.50;69.90
51719;DHT22;37795;53.236;5.704;2023-05-10T14:21:15;17.10;70.70
51719;DHT22;37795;53.236;5.704;2023-05-10T14:23:40;17.10;71.80
51719;DHT22;37795;53.236;5.704;2023-05-10T14:26:06;16.70;70.80
51719;DHT22;37795;53.236;5.704;2023-05-10T14:28:32;15.60;71.70
51719;DHT22;37795;53.236;5.704;2023-05-10T14:30:58;15.30;72.70
51719;DHT22;37795;53.236;5.704;2023-05-10T14:33:24;15.20;73.50
51719;DHT22;37795;53.236;5.704;2023-05-10T14:35:50;15.60;74.50
51719;DHT22;37795;53.236;5.704;2023-05-10T14:38:16;15.60;73.50
51719;DHT22;37795;53.236;5.704;2023-05-10T14:40:42;15.60;73.70
51719;DHT22;37795;53.236;5.704;2023-05-10T14:43:08;15.90;74.30
51719;DHT22;37795;53.236;5.704;2023-05-10T14:45:34;15.70;72.70
51719;DHT22;37795;53.236;5.704;2023-05-10T14:48:00;15.50;74.50
51719;DHT22;37795;53.236;5.704;2023-05-10T14:50:30;15.70;74.40
51719;DHT22;37795;53.236;5.704;2023-05-10T14:52:56;15.80;73.70
51719;DHT22;37795;53.236;5.704;2023-05-10T14:55:22;15.30;73.60
51719;DHT22;37795;53.236;5.704;2023-05-10T14:57:48;15.60;74.40
51719;DHT22;37795;53.236;5.704;2023-05-10T15:00:16;15.70;74.50
51719;DHT22;37795;53.236;5.704;2023-05-10T15:02:42;15.80;73.90
51719;DHT22;37795;53.236;5.704;2023-05-10T15:05:07;15.80;72.30
51719;DHT22;37795;53.236;5.704;2023-05-10T15:07:33;15.20;72.90
51719;DHT22;37795;53.236;5.704;2023-05-10T15:09:59;14.30;75.80
51719;DHT22;37795;53.236;5.704;2023-05-10T15:12:25;14.80;74.80
51719;DHT22;37795;53.236;5.704;2023-05-10T15:14:51;14.40;75.60
51719;DHT22;37795;53.236;5.704;2023-05-10T15:17:17;14.20;74.60
51719;DHT22;37795;53.236;5.704;2023-05-10T15:19:43;13.80;76.50
51719;DHT22;37795;53.236;5.704;2023-05-10T15:22:08;14.20;77.20
51719;DHT22;37795;53.236;5.704;2023-05-10T15:24:34;13.80;77.40
51719;DHT22;37795;53.236;5.704;2023-05-10T15:27:00;14.00;76.60
51719;DHT22;37795;53.236;5.704;2023-05-10T15:29:26;14.10;77.80
51719;DHT22;37795;53.236;5.704;2023-05-10T15:31:52;14.60;77.60
51719;DHT22;37795;53.236;5.704;2023-05-10T15:34:18;14.90;76.40
51719;DHT22;37795;53.236;5.704;2023-05-10T15:36:44;14.80;75.30
51719;DHT22;37795;53.236;5.704;2023-05-10T15:39:11;14.70;75.40
51719;DHT22;37795;53.236;5.704;2023-05-10T15:41:37;15.00;76.00
51719;DHT22;37795;53.236;5.704;2023-05-10T15:44:03;15.20;75.00
51719;DHT22;37795;53.236;5.704;2023-05-10T15:46:29;15.20;74.80
51719;DHT22;37795;53.236;5.704;2023-05-10T15:48:55;15.20;74.60
51719;DHT22;37795;53.236;5.704;2023-05-10T15:51:21;14.70;73.50
51719;DHT22;37795;53.236;5.704;2023-05-10T15:53:47;14.90;74.90
51719;DHT22;37795;53.236;5.704;2023-05-10T15:56:13;14.90;74.40
51719;DHT22;37795;53.236;5.704;2023-05-10T15:58:39;14.70;73.90
51719;DHT22;37795;53.236;5.704;2023-05-10T16:01:05;13.80;75.30
51719;DHT22;37795;53.236;5.704;2023-05-10T16:03:32;14.20;77.30
51719;DHT22;37795;53.236;5.704;2023-05-10T16:05:58;14.40;76.40
51719;DHT22;37795;53.236;5.704;2023-05-10T16:08:24;14.50;76.70
51719;DHT22;37795;53.236;5.704;2023-05-10T16:10:51;14.70;76.00
51719;DHT22;37795;53.236;5.704;2023-05-10T16:13:17;14.60;75.20
51719;DHT22;37795;53.236;5.704;2023-05-10T16:15:43;14.50;75.60